createdAt,value
2018-05-26T00:00:58.421Z,101221.72
2018-05-26T00:03:01.934Z,101184.41
2018-05-26T00:05:05.389Z,101154.68
2018-05-26T00:07:08.931Z,101182.81
2018-05-26T00:09:12.424Z,101190.20
2018-05-26T00:11:16.064Z,101208.67
2018-05-26T00:13:19.508Z,101208.14
2018-05-26T00:15:23.707Z,101195.52
2018-05-26T00:17:27.269Z,101218.73
2018-05-26T00:19:30.811Z,101186.16
2018-05-26T00:21:34.331Z,101209.12
2018-05-26T00:23:37.937Z,101175.70
2018-05-26T00:25:41.471Z,101203.27
2018-05-26T00:27:45.099Z,101075.77
2018-05-26T00:29:48.529Z,101060.37
2018-05-26T00:31:52.717Z,101092.69
2018-05-26T00:33:56.123Z,101119.40
2018-05-26T00:35:59.888Z,101164.89
2018-05-26T00:38:03.936Z,101139.80
2018-05-26T00:40:08.188Z,101138.47
2018-05-26T00:42:11.660Z,101181.94
2018-05-26T00:44:15.109Z,101169.42
2018-05-26T00:46:18.563Z,101186.22
2018-05-26T00:48:22.148Z,101082.84
2018-05-26T00:50:26.627Z,101194.60
2018-05-26T00:52:29.946Z,101226.35
2018-05-26T00:54:33.333Z,101183.85
2018-05-26T00:56:36.684Z,101225.83
2018-05-26T00:58:40.029Z,101229.67
2018-05-26T01:00:43.375Z,101231.41
2018-05-26T01:02:46.736Z,101230.17
2018-05-26T01:04:50.090Z,101230.63
2018-05-26T01:06:53.453Z,101232.69
2018-05-26T01:08:57.406Z,101221.34
2018-05-26T01:11:00.867Z,101215.09
2018-05-26T01:13:04.551Z,101192.80
2018-05-26T01:15:07.986Z,101180.36
2018-05-26T01:17:11.373Z,101233.45
2018-05-26T01:19:16.152Z,101231.27
2018-05-26T01:21:19.614Z,101234.23
2018-05-26T01:23:23.014Z,101185.89
2018-05-26T01:25:26.441Z,101202.11
2018-05-26T01:27:29.845Z,101230.65
2018-05-26T01:29:33.268Z,101229.73
2018-05-26T01:31:36.720Z,101227.89
2018-05-26T01:33:40.141Z,101176.43
2018-05-26T01:35:43.561Z,101234.27
2018-05-26T01:37:47.322Z,101204.83
2018-05-26T01:39:50.856Z,101233.31
2018-05-26T01:41:54.485Z,101225.31
2018-05-26T01:43:58.048Z,101224.05
2018-05-26T01:46:01.502Z,101223.10
2018-05-26T01:48:05.826Z,101186.60
2018-05-26T01:50:09.268Z,101223.02
2018-05-26T01:52:12.604Z,101209.87
2018-05-26T01:54:15.907Z,101208.70
2018-05-26T01:56:20.056Z,101211.39
2018-05-26T01:58:24.812Z,101205.99
2018-05-26T02:00:29.003Z,101210.95
2018-05-26T02:02:32.452Z,101209.16
2018-05-26T02:04:35.861Z,101210.81
2018-05-26T02:06:39.182Z,101211.58
2018-05-26T02:08:42.601Z,101209.28
2018-05-26T02:10:46.739Z,101213.17
2018-05-26T02:12:50.082Z,101203.37
2018-05-26T02:14:53.441Z,101216.94
2018-05-26T02:16:56.793Z,101214.75
2018-05-26T02:19:00.171Z,101216.00
2018-05-26T02:21:03.601Z,101217.33
2018-05-26T02:23:07.021Z,101211.18
2018-05-26T02:25:10.339Z,101200.71
2018-05-26T02:27:13.791Z,101208.98
2018-05-26T02:29:17.126Z,101206.37
2018-05-26T02:31:20.488Z,101208.56
2018-05-26T02:33:23.844Z,101207.19
2018-05-26T02:35:27.144Z,101193.56
2018-05-26T02:37:30.501Z,101199.63
2018-05-26T02:39:34.014Z,101196.47
2018-05-26T02:41:37.437Z,101199.81
2018-05-26T02:43:40.779Z,101198.95
2018-05-26T02:45:45.230Z,101205.43
2018-05-26T02:47:48.567Z,101204.13
2018-05-26T02:49:51.953Z,101202.87
2018-05-26T02:51:55.503Z,101205.91
2018-05-26T02:53:58.876Z,101204.36
2018-05-26T02:56:03.009Z,101207.02
2018-05-26T02:58:06.428Z,101209.14
2018-05-26T03:00:09.949Z,101208.19
2018-05-26T03:02:13.362Z,101202.42
2018-05-26T03:04:22.380Z,101203.73
2018-05-26T03:06:31.057Z,101214.05
2018-05-26T03:08:39.928Z,101208.72
2018-05-26T03:10:48.857Z,101212.61
2018-05-26T03:12:58.533Z,101209.14
2018-05-26T03:15:01.219Z,101208.23
2018-05-26T03:17:04.807Z,101204.66
2018-05-26T03:19:08.203Z,101200.59
2018-05-26T03:21:11.577Z,101200.50
2018-05-26T03:23:14.947Z,101204.94
2018-05-26T03:25:18.308Z,101199.75
2018-05-26T03:27:21.734Z,101202.83
2018-05-26T03:29:26.081Z,101208.45
2018-05-26T03:31:29.399Z,101208.39
2018-05-26T03:33:32.809Z,101220.11
2018-05-26T03:35:36.159Z,101215.45
2018-05-26T03:37:39.595Z,101221.59
2018-05-26T03:39:43.027Z,101223.75
2018-05-26T03:41:47.214Z,101225.50
2018-05-26T03:43:50.603Z,101215.84
2018-05-26T03:45:53.977Z,101222.24
2018-05-26T03:47:58.090Z,101228.16
2018-05-26T03:50:01.481Z,101212.27
2018-05-26T03:52:04.863Z,101232.94
2018-05-26T03:54:08.350Z,101235.07
2018-05-26T03:56:29.323Z,101241.61
2018-05-26T03:58:50.252Z,101241.66
2018-05-26T04:00:53.695Z,101238.69
2018-05-26T04:02:57.083Z,101246.02
2018-05-26T04:05:00.469Z,101238.61
2018-05-26T04:07:05.009Z,101245.94
2018-05-26T04:09:09.320Z,101238.44
2018-05-26T04:11:12.646Z,101238.98
2018-05-26T04:13:17.063Z,101249.91
2018-05-26T04:15:20.486Z,101248.70
2018-05-26T04:17:23.827Z,101240.47
2018-05-26T04:19:27.292Z,101253.42
2018-05-26T04:21:31.424Z,101250.34
2018-05-26T04:23:36.511Z,101252.50
2018-05-26T04:25:39.969Z,101264.13
2018-05-26T04:27:44.948Z,101266.23
2018-05-26T04:29:48.287Z,101264.02
2018-05-26T04:31:52.659Z,101261.09
2018-05-26T04:33:56.761Z,101260.67
2018-05-26T04:36:00.075Z,101266.34
2018-05-26T04:38:03.446Z,101262.78
2018-05-26T04:40:07.581Z,101267.72
2018-05-26T04:42:10.946Z,101271.28
2018-05-26T04:44:14.330Z,101268.29
2018-05-26T04:46:17.784Z,101265.55
2018-05-26T04:48:21.234Z,101262.15
2018-05-26T04:50:24.602Z,101269.23
2018-05-26T04:52:28.051Z,101269.11
2018-05-26T04:54:31.430Z,101279.09
2018-05-26T04:56:35.612Z,101271.39
2018-05-26T04:58:39.180Z,101276.31
2018-05-26T05:00:42.577Z,101271.91
2018-05-26T05:02:46.022Z,101275.48
2018-05-26T05:04:50.181Z,101277.36
2018-05-26T05:06:53.596Z,101279.25
2018-05-26T05:08:56.998Z,101286.72
2018-05-26T05:11:00.526Z,101290.70
2018-05-26T05:13:04.687Z,101295.52
2018-05-26T05:15:08.868Z,101298.17
2018-05-26T05:17:12.320Z,101290.03
2018-05-26T05:19:15.705Z,101293.19
2018-05-26T05:21:19.072Z,101303.36
2018-05-26T05:23:23.254Z,101304.22
2018-05-26T05:25:27.403Z,101314.89
2018-05-26T05:27:30.829Z,101315.37
2018-05-26T05:29:34.241Z,101318.91
2018-05-26T05:31:38.553Z,101319.03
2018-05-26T05:33:42.687Z,101312.69
2018-05-26T05:35:46.208Z,101313.64
2018-05-26T05:37:49.548Z,101309.00
2018-05-26T05:39:53.767Z,101319.94
2018-05-26T05:41:57.130Z,101321.98
2018-05-26T05:44:00.634Z,101317.16
2018-05-26T05:46:04.044Z,101313.61
2018-05-26T05:48:07.489Z,101322.19
2018-05-26T05:50:10.865Z,101325.94
2018-05-26T05:52:14.326Z,101324.25
2018-05-26T06:21:44.181Z,101350.17
2018-05-26T06:23:47.581Z,101355.58
2018-05-26T06:25:51.788Z,101357.83
2018-05-26T06:27:55.179Z,101347.92
2018-05-26T06:29:58.597Z,101351.06
2018-05-26T06:32:02.171Z,101362.44
2018-05-26T06:34:05.575Z,101357.80
2018-05-26T06:36:08.959Z,101354.47
2018-05-26T06:38:12.347Z,101355.98
2018-05-26T06:40:16.004Z,101347.27
2018-05-26T06:42:19.647Z,101337.27
2018-05-26T06:44:23.050Z,101352.78
2018-05-26T06:46:26.483Z,101348.05
2018-05-26T06:48:31.107Z,101338.49
2018-05-26T06:50:34.675Z,101344.70
2018-05-26T06:52:38.337Z,101299.47
2018-05-26T06:54:41.947Z,101210.01
2018-05-26T06:56:45.465Z,101338.42
2018-05-26T06:58:48.824Z,101348.70
2018-05-26T07:00:52.182Z,101352.33
2018-05-26T07:02:55.588Z,101351.34
2018-05-26T07:04:58.955Z,101347.75
2018-05-26T07:07:02.301Z,101345.52
2018-05-26T07:09:05.827Z,101350.20
2018-05-26T07:11:09.191Z,101344.04
2018-05-26T07:13:12.518Z,101353.70
2018-05-26T07:15:15.883Z,101340.36
2018-05-26T07:17:19.252Z,101344.70
2018-05-26T07:19:22.658Z,101331.20
2018-05-26T07:21:25.998Z,101342.32
2018-05-26T07:23:29.460Z,101337.30
2018-05-26T07:25:32.947Z,101339.67
2018-05-26T07:27:36.550Z,101337.39
2018-05-26T07:29:39.856Z,101339.55
2018-05-26T07:31:43.202Z,101339.64
2018-05-26T07:33:46.559Z,101340.27
2018-05-26T07:35:49.871Z,101335.47
2018-05-26T07:37:53.955Z,101335.95
2018-05-26T07:39:57.291Z,101342.27
2018-05-26T07:42:00.623Z,101338.80
2018-05-26T07:44:03.946Z,101349.88
2018-05-26T07:46:08.243Z,101344.63
2018-05-26T07:48:11.576Z,101347.78
2018-05-26T07:50:14.890Z,101354.44
2018-05-26T07:52:18.287Z,101352.37
2018-05-26T07:54:21.638Z,101352.94
2018-05-26T07:56:24.934Z,101347.36
2018-05-26T07:58:28.639Z,101346.08
2018-05-26T08:00:32.921Z,101348.71
2018-05-26T08:02:36.340Z,101345.22
2018-05-26T08:04:39.835Z,101347.52
2018-05-26T08:06:43.367Z,101344.45
2018-05-26T08:08:46.732Z,101350.30
2018-05-26T08:10:50.184Z,101352.48
2018-05-26T08:12:53.509Z,101352.17
2018-05-26T08:14:57.629Z,101350.42
2018-05-26T08:17:00.967Z,101354.70
2018-05-26T08:19:04.392Z,101356.52
2018-05-26T08:21:07.754Z,101360.14
2018-05-26T08:23:11.148Z,101354.84
2018-05-26T08:25:14.505Z,101357.50
2018-05-26T08:27:17.992Z,101364.59
2018-05-26T08:29:21.404Z,101372.59
2018-05-26T08:31:24.747Z,101369.13
2018-05-26T08:33:28.097Z,101363.13
2018-05-26T08:35:32.410Z,101371.86
2018-05-26T08:37:35.780Z,101371.39
2018-05-26T08:39:39.083Z,101367.08
2018-05-26T08:41:42.448Z,101367.09
2018-05-26T08:43:45.776Z,101367.08
2018-05-26T08:45:49.111Z,101367.96
2018-05-26T08:47:52.452Z,101366.30
2018-05-26T08:49:55.758Z,101369.80
2018-05-26T08:51:59.109Z,101368.91
2018-05-26T08:54:03.329Z,101369.41
2018-05-26T08:56:06.698Z,101370.72
2018-05-26T08:58:10.132Z,101369.84
2018-05-26T09:00:13.602Z,101373.39
2018-05-26T09:02:17.766Z,101372.05
2018-05-26T09:04:22.054Z,101372.92
2018-05-26T09:06:25.478Z,101370.30
2018-05-26T09:08:28.772Z,101370.34
2018-05-26T09:10:32.113Z,101371.20
2018-05-26T09:12:35.498Z,101371.20
2018-05-26T09:14:38.894Z,101370.77
2018-05-26T09:16:42.280Z,101374.70
2018-05-26T09:18:45.730Z,101377.79
2018-05-26T09:20:51.466Z,101374.27
2018-05-26T09:22:54.816Z,101375.11
2018-05-26T09:24:58.179Z,101371.63
2018-05-26T09:27:01.539Z,101365.05
2018-05-26T09:29:04.883Z,101374.25
2018-05-26T09:31:08.237Z,101372.48
2018-05-26T09:33:11.578Z,101365.92
2018-05-26T09:35:14.952Z,101359.80
2018-05-26T09:39:34.451Z,101360.27
2018-05-26T09:41:38.561Z,101361.12
2018-05-26T09:43:42.703Z,101356.30
2018-05-26T09:45:46.784Z,101369.84
2018-05-26T09:47:50.154Z,101368.94
2018-05-26T09:49:54.718Z,101372.44
2018-05-26T09:51:58.059Z,101364.55
2018-05-26T09:54:01.582Z,101370.64
2018-05-26T09:56:04.935Z,101370.66
2018-05-26T09:58:08.355Z,101367.92
2018-05-26T10:00:11.745Z,101361.83
2018-05-26T10:02:15.159Z,101368.84
2018-05-26T10:04:19.303Z,101361.86
2018-05-26T10:06:24.094Z,101365.34
2018-05-26T10:08:27.455Z,101358.34
2018-05-26T10:10:30.779Z,101360.09
2018-05-26T10:12:34.173Z,101348.63
2018-05-26T10:14:37.625Z,101370.80
2018-05-26T10:16:40.943Z,101367.80
2018-05-26T10:18:44.415Z,101360.42
2018-05-26T10:20:47.731Z,101367.66
2018-05-26T10:22:52.563Z,101369.05
2018-05-26T10:24:55.950Z,101359.50
2018-05-26T10:26:59.263Z,101359.94
2018-05-26T10:29:04.338Z,101358.66
2018-05-26T10:31:07.688Z,101342.39
2018-05-26T10:33:10.985Z,101344.95
2018-05-26T10:35:14.345Z,101350.70
2018-05-26T10:37:18.826Z,101354.58
2018-05-26T10:39:22.418Z,101343.76
2018-05-26T10:41:25.763Z,101351.45
2018-05-26T10:43:29.182Z,101339.64
2018-05-26T10:45:57.673Z,101352.34
2018-05-26T10:48:01.056Z,101342.28
2018-05-26T10:50:04.427Z,101346.97
2018-05-26T10:52:08.611Z,101347.45
2018-05-26T10:54:13.790Z,101345.70
2018-05-26T10:56:17.234Z,101344.89
2018-05-26T10:58:20.856Z,101334.92
2018-05-26T11:00:28.715Z,101348.94
2018-05-26T11:02:33.044Z,101339.72
2018-05-26T11:04:36.771Z,101350.23
2018-05-26T11:06:49.443Z,101349.66
2018-05-26T11:08:54.169Z,101348.17
2018-05-26T11:10:57.772Z,101350.02
2018-05-26T11:13:01.262Z,101356.98
2018-05-26T11:15:04.684Z,101352.26
2018-05-26T11:17:08.417Z,101351.29
2018-05-26T11:19:12.518Z,101349.92
2018-05-26T11:21:15.951Z,101344.69
2018-05-26T11:23:20.274Z,101350.69
2018-05-26T11:25:23.879Z,101355.80
2018-05-26T11:27:28.102Z,101360.80
2018-05-26T11:29:31.454Z,101355.67
2018-05-26T11:31:34.851Z,101356.22
2018-05-26T11:33:38.209Z,101354.13
2018-05-26T11:35:41.699Z,101346.11
2018-05-26T11:37:46.335Z,101345.23
2018-05-26T11:39:49.848Z,101343.81
2018-05-26T11:41:53.778Z,101346.28
2018-05-26T11:43:59.052Z,101338.22
2018-05-26T11:46:02.635Z,101340.74
2018-05-26T11:48:05.967Z,101346.24
2018-05-26T11:50:09.343Z,101346.84
2018-05-26T11:52:12.779Z,101353.38
2018-05-26T11:54:16.146Z,101344.43
2018-05-26T11:56:20.252Z,101353.02
2018-05-26T11:58:23.678Z,101340.80
2018-05-26T12:00:27.010Z,101350.14
2018-05-26T12:02:30.486Z,101346.77
2018-05-26T12:04:33.835Z,101336.13
2018-05-26T12:06:38.005Z,101338.39
2018-05-26T12:08:41.545Z,101346.59
2018-05-26T12:10:45.350Z,101332.44
2018-05-26T12:12:48.739Z,101335.53
2018-05-26T12:14:52.127Z,101340.95
2018-05-26T12:16:55.544Z,101343.08
2018-05-26T12:18:59.059Z,101340.37
2018-05-26T12:21:02.404Z,101332.01
2018-05-26T12:23:05.784Z,101334.61
2018-05-26T12:25:09.424Z,101342.80
2018-05-26T12:27:13.233Z,101343.22
2018-05-26T12:29:18.084Z,101341.36
2018-05-26T12:31:22.197Z,101339.58
2018-05-26T12:33:26.534Z,101334.22
2018-05-26T12:35:29.956Z,101327.66
2018-05-26T12:37:33.551Z,101327.84
2018-05-26T12:39:37.320Z,101346.40
2018-05-26T12:41:40.973Z,101350.08
2018-05-26T12:43:44.459Z,101307.72
2018-05-26T12:45:47.856Z,101342.05
2018-05-26T12:47:52.047Z,101347.77
2018-05-26T12:49:55.446Z,101309.90
2018-05-26T12:51:58.840Z,101341.42
2018-05-26T12:54:03.021Z,101348.09
2018-05-26T12:56:06.385Z,101347.34
2018-05-26T12:58:09.812Z,101336.08
2018-05-26T13:00:13.151Z,101332.33
2018-05-26T13:02:16.749Z,101327.09
2018-05-26T13:04:20.202Z,101335.88
2018-05-26T13:06:24.931Z,101340.93
2018-05-26T13:08:28.437Z,101344.15
2018-05-26T13:10:31.924Z,101329.95
2018-05-26T13:12:35.342Z,101328.80
2018-05-26T13:14:38.748Z,101328.15
2018-05-26T13:16:42.123Z,101335.72
2018-05-26T13:18:46.146Z,101326.91
2018-05-26T13:20:50.530Z,101316.94
2018-05-26T13:22:54.038Z,101315.98
2018-05-26T13:24:57.389Z,101305.09
2018-05-26T13:27:00.772Z,101310.50
2018-05-26T13:29:04.171Z,101316.69
2018-05-26T13:31:07.486Z,101315.33
2018-05-26T13:33:10.945Z,101316.22
2018-05-26T13:35:14.346Z,101305.27
2018-05-26T13:37:17.699Z,101312.20
2018-05-26T13:39:21.080Z,101304.67
2018-05-26T13:41:24.440Z,101303.63
2018-05-26T13:43:27.788Z,101305.55
2018-05-26T13:45:31.162Z,101309.58
2018-05-26T13:47:34.570Z,101300.30
2018-05-26T13:49:38.815Z,101306.20
2018-05-26T13:51:42.185Z,101310.00
2018-05-26T13:53:46.351Z,101303.55
2018-05-26T13:55:51.569Z,101296.45
2018-05-26T13:57:55.153Z,101306.11
2018-05-26T13:59:58.547Z,101304.16
2018-05-26T14:02:02.271Z,101303.48
2018-05-26T14:04:05.724Z,101291.55
2018-05-26T14:06:09.192Z,101296.12
2018-05-26T14:08:12.892Z,101295.89
2018-05-26T14:10:16.386Z,101308.13
2018-05-26T14:12:20.105Z,101298.69
2018-05-26T14:14:23.563Z,101301.27
2018-05-26T14:16:27.778Z,101301.22
2018-05-26T14:18:31.279Z,101295.81
2018-05-26T14:20:34.755Z,101297.11
2018-05-26T14:22:38.214Z,101289.96
2018-05-26T14:24:41.819Z,101283.91
2018-05-26T14:26:45.196Z,101285.70
2018-05-26T14:28:55.314Z,101276.09
2018-05-26T14:30:58.847Z,101273.50
2018-05-26T14:33:02.366Z,101278.53
2018-05-26T14:35:05.826Z,101275.11
2018-05-26T14:37:09.418Z,101275.92
2018-05-26T14:39:12.764Z,101278.25
2018-05-26T14:41:16.133Z,101265.11
2018-05-26T14:43:19.524Z,101275.84
2018-05-26T14:45:22.870Z,101266.38
2018-05-26T14:47:26.371Z,101238.09
2018-05-26T14:49:29.850Z,101274.77
2018-05-26T14:51:33.768Z,101239.42
2018-05-26T14:53:37.167Z,101280.28
2018-05-26T14:55:40.643Z,101272.30
2018-05-26T14:57:44.106Z,101273.86
2018-05-26T14:59:47.466Z,101269.16
2018-05-26T15:01:51.676Z,101262.47
2018-05-26T15:03:55.435Z,101270.05
2018-05-26T15:05:58.825Z,101269.25
2018-05-26T15:08:02.339Z,101263.63
2018-05-26T15:10:05.789Z,101256.03
2018-05-26T15:12:09.163Z,101268.78
2018-05-26T15:14:13.073Z,101258.11
2018-05-26T15:16:17.368Z,101260.13
2018-05-26T15:18:21.589Z,101256.18
2018-05-26T15:20:25.207Z,101253.79
2018-05-26T15:22:28.795Z,101251.73
2018-05-26T15:24:33.517Z,101264.88
2018-05-26T15:26:37.723Z,101265.66
2018-05-26T15:28:41.185Z,101258.07
2018-05-26T15:30:44.669Z,101257.83
2018-05-26T15:32:48.064Z,101264.17
2018-05-26T15:34:51.544Z,101261.77
2018-05-26T15:36:55.121Z,101247.49
2018-05-26T15:38:58.587Z,101247.87
2018-05-26T15:41:02.774Z,101254.16
2018-05-26T15:43:06.267Z,101253.02
2018-05-26T15:45:10.769Z,101250.84
2018-05-26T15:47:15.249Z,101246.67
2018-05-26T15:49:19.339Z,101242.06
2018-05-26T15:51:22.722Z,101243.33
2018-05-26T15:53:26.838Z,101242.08
2018-05-26T15:55:30.190Z,101249.62
2018-05-26T15:57:33.528Z,101246.65
2018-05-26T15:59:36.980Z,101250.58
2018-05-26T16:01:40.324Z,101249.69
2018-05-26T16:03:44.474Z,101250.69
2018-05-26T16:05:47.874Z,101247.58
2018-05-26T16:07:51.170Z,101251.55
2018-05-26T16:09:54.773Z,101240.06
2018-05-26T16:17:35.358Z,101240.02
2018-05-26T16:19:38.828Z,101238.05
2018-05-26T16:21:42.208Z,101222.52
2018-05-26T16:23:45.710Z,101231.31
2018-05-26T16:25:49.928Z,101246.27
2018-05-26T16:27:53.679Z,101246.06
2018-05-26T16:29:57.180Z,101247.01
2018-05-26T16:32:00.572Z,101245.42
2018-05-26T16:34:04.091Z,101248.42
2018-05-26T16:36:07.659Z,101249.27
2018-05-26T16:38:11.094Z,101231.03
2018-05-26T16:40:15.351Z,101244.20
2018-05-26T16:42:18.799Z,101251.26
2018-05-26T16:44:22.200Z,101250.86
2018-05-26T16:46:25.609Z,101251.34
2018-05-26T16:48:28.975Z,101246.96
2018-05-26T16:50:32.372Z,101237.92
2018-05-26T16:52:35.972Z,101233.56
2018-05-26T16:54:40.110Z,101243.31
2018-05-26T16:56:43.603Z,101240.63
2018-05-26T16:58:47.109Z,101245.41
2018-05-26T17:00:51.374Z,101242.95
2018-05-26T17:02:54.828Z,101238.15
2018-05-26T17:04:58.412Z,101245.26
2018-05-26T17:07:01.842Z,101247.16
2018-05-26T17:09:06.898Z,101241.19
2018-05-26T17:11:10.372Z,101249.34
2018-05-26T17:13:15.148Z,101242.44
2018-05-26T17:15:18.610Z,101246.95
2018-05-26T17:19:24.486Z,101249.06
2018-05-26T17:21:27.900Z,101239.63
2018-05-26T17:23:31.218Z,101251.94
2018-05-26T17:25:34.614Z,101252.23
2018-05-26T17:27:37.968Z,101250.08
2018-05-26T17:29:42.095Z,101245.31
2018-05-26T17:31:45.565Z,101245.67
2018-05-26T17:33:49.043Z,101236.19
2018-05-26T17:35:52.395Z,101231.83
2018-05-26T17:37:56.534Z,101246.53
2018-05-26T17:39:59.982Z,101173.50
2018-05-26T17:42:03.503Z,101176.54
2018-05-26T17:44:07.141Z,101250.89
2018-05-26T17:46:10.548Z,101250.81
2018-05-26T17:48:14.072Z,101249.73
2018-05-26T17:50:18.674Z,101254.67
2018-05-26T17:52:22.009Z,101251.10
2018-05-26T17:54:25.497Z,101253.27
2018-05-26T17:56:29.180Z,101250.56
2018-05-26T17:58:32.536Z,101257.74
2018-05-26T23:33:21.976Z,101255.72
